Flight Track Log - Related Links

Times and Time Zones

All times are in EDT time to prevent confusion due to time zone crossing. See the UCA5011 flight status page for this flight to view local times or setup timezone preferences in your user account.

Time Position Orientation Groundspeed Altitude Reporting Facility
EDT Latitude Longitude Course Direction KTS MPH feet Rate Location/Type
Sun 10:28:01 AM 38.3389 -81.6136 82° East 121 139 3,000  Level Indianapolis Center
Sun 10:29:03 AM 38.3361 -81.5583 94° East 188 216 4,400 1,306 Climbing Indianapolis Center
Sun 10:30:05 AM 38.3642 -81.4972 60° Northeast 199 229 5,700 1,512 Climbing Indianapolis Center
Sun 10:31:06 AM 38.3811 -81.4119 76° East 209 241 7,500 1,610 Climbing Indianapolis Center
Sun 10:32:08 AM 38.3883 -81.3400 83° East 206 237 9,000 1,258 Climbing Indianapolis Center
Sun 10:33:00 AM 38.3670 -81.4467 82° East  Level FlightAware Approximate
Sun 10:33:10 AM 38.3947 -81.2642 84° East 216 249 10,100  Level Indianapolis Center
Sun 10:34:11 AM 38.4006 -81.1825 85° East 231 266 11,300 1,220 Climbing Indianapolis Center
Sun 10:35:13 AM 38.4089 -81.1019 82° East 231 266 12,600 1,220 Climbing Indianapolis Center
Sun 10:36:14 AM 38.4164 -81.0214 83° East 230 265 13,800 976 Climbing Indianapolis Center
Sun 10:37:16 AM 38.4239 -80.9364 84° East 240 276 14,600 1,024 Climbing Indianapolis Center
Sun 10:38:17 AM 38.4328 -80.8311 84° East 248 285 15,900 1,024 Climbing Indianapolis Center
Sun 10:39:19 AM 38.4392 -80.7433 85° East 254 292 16,700 484 Climbing Indianapolis Center
Sun 10:40:21 AM 38.4458 -80.6514 85° East 261 300 16,900 98 Climbing Indianapolis Center
Sun 10:41:22 AM 38.4539 -80.5489 84° East 288 331 16,900  Level Indianapolis Center
Sun 10:42:24 AM 38.4642 -80.4433 83° East 293 337 16,900 45 Level Indianapolis Center
Sun 10:43:36 AM 38.4736 -80.3336 84° East 284 327 17,000 91 Climbing Washington Center
Sun 10:44:36 AM 38.4817 -80.2333 84° East 284 327 17,100 50 Climbing Washington Center
Sun 10:45:37 AM 38.4897 -80.1331 84° East 284 327 17,100 -50 Level Washington Center
Sun 10:46:37 AM 38.4978 -80.0353 84° East 284 327 17,000 -50 Descending Washington Center
Sun 10:47:38 AM 38.5058 -79.9217 85° East 284 327 17,000  Level Washington Center
Sun 10:48:38 AM 38.5136 -79.8214 84° East 284 327 17,000  Level Washington Center
Sun 10:49:36 AM 38.5217 -79.7156 84° East 290 334 17,000  Level Washington Center
Sun 10:50:37 AM 38.5292 -79.6125 85° East 290 334 17,000 -344 Level Washington Center
Sun 10:51:38 AM 38.5367 -79.5122 85° East 299 344 16,300 -694 Descending Washington Center
Sun 10:52:38 AM 38.5444 -79.4011 85° East 310 357 15,600 -763 Descending Washington Center
Sun 10:53:36 AM 38.5542 -79.2900 84° East 310 357 14,800 -864 Descending Washington Center
Sun 10:54:36 AM 38.5597 -79.1733 86° East 310 357 13,900 -942 Descending Washington Center
Sun 10:55:37 AM 38.5692 -79.0675 83° East 310 357 12,900 -992 Descending Washington Center
Sun 10:56:37 AM 38.5764 -78.9592 85° East 310 357 11,900 -992 Descending Washington Center
Sun 10:57:38 AM 38.5836 -78.8531 85° East 310 357 10,900 -992 Descending Washington Center
Sun 10:58:38 AM 38.5906 -78.7472 85° East 305 351 9,900 -1,017 Descending Washington Center
Sun 10:59:36 AM 38.5953 -78.6439 87° East 299 344 8,900 -1,008 Descending Washington Center
Sun 11:00:37 AM 38.6186 -78.5492 72° East 287 330 7,900 -942 Descending Washington Center
Sun 11:01:37 AM 38.6622 -78.4658 56° Northeast 271 312 7,000 -446 Descending Washington Center
Sun 11:02:38 AM 38.6853 -78.3789 71° East 271 312 7,000  Level Washington Center
Sun 11:03:35 AM 38.7100 -78.2894 70° East 265 305 7,000 -102 Level Washington Center
Sun 11:04:36 AM 38.7758 -78.2439 28° Northeast 255 293 6,800 -393 Descending Washington Center
Sun 11:05:37 AM 38.8533 -78.2228 12° North 254 292 6,200 -393 Descending Washington Center
Sun 11:06:38 AM 38.9028 -78.1497 49° Northeast 264 304 6,000 -99 Descending Washington Center
Sun 11:07:38 AM 38.9172 -78.0647 78° East 237 273 6,000  Level Washington Center
Sun 11:08:36 AM 38.9314 -77.9772 78° East 232 267 6,000  Level Washington Center
Sun 11:10:15 AM 38.9500 -77.8167 81° East 246 283 6,000  Level Potomac TRACON
Sun 11:11:16 AM 38.9667 -77.7333 76° East 242 278 6,000  Level Potomac TRACON
Sun 11:12:16 AM 38.9500 -77.6500 104° East 237 273 6,000  Level Potomac TRACON
Sun 11:13:16 AM 39.0000 -77.5833 46° Northeast 264 304 6,000 -50 Level Potomac TRACON
Sun 11:14:17 AM 39.0667 -77.5667 11° North 253 291 5,900 -545 Descending Potomac TRACON
Sun 11:15:17 AM 39.1333 -77.5667 360° North 253 291 4,900 -1,200 Descending Potomac TRACON
Sun 11:16:17 AM 39.1500 -77.5000 72° East 232 267 3,500 -1,050 Descending Potomac TRACON
Sun 11:17:17 AM 39.1000 -77.4667 153° Southeast 187 215 2,800 -850 Descending Potomac TRACON
Sun 11:18:17 AM 39.0500 -77.4667 180° South 194 223 1,800 -1,000 Descending Potomac TRACON

Login

Don't have an account? Register now (free) for customized features, flight alerts, and more!